sensor_id;sensor_type;location;lat;lon;timestamp;P1;durP1;ratioP1;P2;durP2;ratioP2
42338;SDS011;27993;45.392;10.918;2022-11-20T00:00:47;14.40;;;9.10;;
42338;SDS011;27993;45.392;10.918;2022-11-20T00:03:21;13.30;;;8.38;;
42338;SDS011;27993;45.392;10.918;2022-11-20T00:05:52;15.20;;;7.43;;
42338;SDS011;27993;45.392;10.918;2022-11-20T00:08:23;11.30;;;6.43;;
42338;SDS011;27993;45.392;10.918;2022-11-20T00:10:54;16.03;;;6.53;;
42338;SDS011;27993;45.392;10.918;2022-11-20T00:13:25;24.63;;;7.07;;
42338;SDS011;27993;45.392;10.918;2022-11-20T00:16:00;15.88;;;7.25;;
42338;SDS011;27993;45.392;10.918;2022-11-20T00:18:32;13.38;;;7.35;;
42338;SDS011;27993;45.392;10.918;2022-11-20T00:21:07;11.50;;;6.20;;
42338;SDS011;27993;45.392;10.918;2022-11-20T00:23:40;11.90;;;7.05;;
42338;SDS011;27993;45.392;10.918;2022-11-20T00:26:15;20.15;;;6.68;;
42338;SDS011;27993;45.392;10.918;2022-11-20T00:28:55;13.10;;;6.45;;
42338;SDS011;27993;45.392;10.918;2022-11-20T00:31:27;11.12;;;6.18;;
42338;SDS011;27993;45.392;10.918;2022-11-20T00:33:58;17.60;;;6.40;;
42338;SDS011;27993;45.392;10.918;2022-11-20T00:36:31;18.17;;;5.87;;
42338;SDS011;27993;45.392;10.918;2022-11-20T00:39:02;14.70;;;6.05;;
42338;SDS011;27993;45.392;10.918;2022-11-20T00:41:36;10.80;;;6.07;;
42338;SDS011;27993;45.392;10.918;2022-11-20T00:44:07;10.07;;;6.07;;
42338;SDS011;27993;45.392;10.918;2022-11-20T00:46:38;14.03;;;5.13;;
42338;SDS011;27993;45.392;10.918;2022-11-20T00:49:09;11.70;;;4.83;;
42338;SDS011;27993;45.392;10.918;2022-11-20T00:51:40;13.70;;;5.13;;
42338;SDS011;27993;45.392;10.918;2022-11-20T00:54:11;9.30;;;4.50;;
42338;SDS011;27993;45.392;10.918;2022-11-20T00:56:45;8.43;;;3.95;;
42338;SDS011;27993;45.392;10.918;2022-11-20T00:59:16;9.13;;;4.10;;
42338;SDS011;27993;45.392;10.918;2022-11-20T01:01:47;11.80;;;3.70;;
42338;SDS011;27993;45.392;10.918;2022-11-20T01:04:18;9.37;;;4.53;;
42338;SDS011;27993;45.392;10.918;2022-11-20T01:06:49;6.20;;;4.07;;
42338;SDS011;27993;45.392;10.918;2022-11-20T01:09:20;6.80;;;3.83;;
42338;SDS011;27993;45.392;10.918;2022-11-20T01:11:51;9.17;;;3.43;;
42338;SDS011;27993;45.392;10.918;2022-11-20T01:14:22;9.67;;;3.63;;
42338;SDS011;27993;45.392;10.918;2022-11-20T01:16:53;12.53;;;3.43;;
42338;SDS011;27993;45.392;10.918;2022-11-20T01:19:24;8.50;;;3.40;;
42338;SDS011;27993;45.392;10.918;2022-11-20T01:21:55;5.77;;;3.17;;
42338;SDS011;27993;45.392;10.918;2022-11-20T01:24:26;5.73;;;3.40;;
42338;SDS011;27993;45.392;10.918;2022-11-20T01:26:57;5.07;;;2.87;;
42338;SDS011;27993;45.392;10.918;2022-11-20T01:29:28;3.90;;;2.37;;
42338;SDS011;27993;45.392;10.918;2022-11-20T01:31:59;7.43;;;2.93;;
42338;SDS011;27993;45.392;10.918;2022-11-20T01:34:30;6.13;;;2.93;;
42338;SDS011;27993;45.392;10.918;2022-11-20T01:37:01;4.60;;;2.20;;
42338;SDS011;27993;45.392;10.918;2022-11-20T01:39:32;5.63;;;2.63;;
42338;SDS011;27993;45.392;10.918;2022-11-20T01:42:03;4.60;;;2.30;;
42338;SDS011;27993;45.392;10.918;2022-11-20T01:44:57;4.03;;;2.40;;
42338;SDS011;27993;45.392;10.918;2022-11-20T01:47:41;5.78;;;3.03;;
42338;SDS011;27993;45.392;10.918;2022-11-20T01:50:15;8.07;;;3.53;;
42338;SDS011;27993;45.392;10.918;2022-11-20T01:52:49;4.50;;;2.70;;
42338;SDS011;27993;45.392;10.918;2022-11-20T01:55:22;7.93;;;3.17;;
42338;SDS011;27993;45.392;10.918;2022-11-20T01:57:55;11.73;;;3.15;;
42338;SDS011;27993;45.392;10.918;2022-11-20T02:00:26;6.43;;;3.08;;
42338;SDS011;27993;45.392;10.918;2022-11-20T02:02:58;9.23;;;2.70;;
42338;SDS011;27993;45.392;10.918;2022-11-20T02:05:34;5.87;;;2.72;;
42338;SDS011;27993;45.392;10.918;2022-11-20T02:08:06;4.95;;;2.83;;
42338;SDS011;27993;45.392;10.918;2022-11-20T02:10:37;6.05;;;3.05;;
42338;SDS011;27993;45.392;10.918;2022-11-20T02:13:08;6.50;;;3.13;;
42338;SDS011;27993;45.392;10.918;2022-11-20T02:15:58;5.37;;;2.83;;
42338;SDS011;27993;45.392;10.918;2022-11-20T02:18:29;3.57;;;2.50;;
42338;SDS011;27993;45.392;10.918;2022-11-20T02:21:08;5.85;;;2.97;;
42338;SDS011;27993;45.392;10.918;2022-11-20T02:24:01;6.75;;;2.95;;
42338;SDS011;27993;45.392;10.918;2022-11-20T02:26:33;8.63;;;3.35;;
42338;SDS011;27993;45.392;10.918;2022-11-20T02:29:04;5.10;;;2.75;;
42338;SDS011;27993;45.392;10.918;2022-11-20T02:31:36;6.37;;;2.80;;
42338;SDS011;27993;45.392;10.918;2022-11-20T02:34:08;5.35;;;3.00;;
42338;SDS011;27993;45.392;10.918;2022-11-20T02:36:39;6.00;;;2.67;;
42338;SDS011;27993;45.392;10.918;2022-11-20T02:39:11;5.07;;;3.30;;
42338;SDS011;27993;45.392;10.918;2022-11-20T02:41:43;4.05;;;2.12;;
42338;SDS011;27993;45.392;10.918;2022-11-20T02:44:15;4.37;;;2.85;;
42338;SDS011;27993;45.392;10.918;2022-11-20T02:46:46;6.40;;;2.67;;
42338;SDS011;27993;45.392;10.918;2022-11-20T02:49:17;7.60;;;3.27;;
42338;SDS011;27993;45.392;10.918;2022-11-20T02:51:48;4.37;;;2.53;;
42338;SDS011;27993;45.392;10.918;2022-11-20T02:54:19;7.53;;;2.57;;
42338;SDS011;27993;45.392;10.918;2022-11-20T02:56:50;5.80;;;3.07;;
42338;SDS011;27993;45.392;10.918;2022-11-20T02:59:21;5.47;;;2.60;;
42338;SDS011;27993;45.392;10.918;2022-11-20T03:01:52;4.40;;;2.72;;
42338;SDS011;27993;45.392;10.918;2022-11-20T03:04:23;12.47;;;2.77;;
42338;SDS011;27993;45.392;10.918;2022-11-20T03:06:53;18.60;;;3.07;;
42338;SDS011;27993;45.392;10.918;2022-11-20T03:09:24;5.50;;;3.20;;
42338;SDS011;27993;45.392;10.918;2022-11-20T03:11:55;5.53;;;2.83;;
42338;SDS011;27993;45.392;10.918;2022-11-20T03:14:27;5.10;;;2.67;;
42338;SDS011;27993;45.392;10.918;2022-11-20T03:16:58;4.65;;;2.60;;
42338;SDS011;27993;45.392;10.918;2022-11-20T03:19:29;9.10;;;2.80;;
42338;SDS011;27993;45.392;10.918;2022-11-20T03:22:00;4.20;;;2.33;;
42338;SDS011;27993;45.392;10.918;2022-11-20T03:24:31;7.90;;;3.00;;
42338;SDS011;27993;45.392;10.918;2022-11-20T03:27:02;4.97;;;2.62;;
42338;SDS011;27993;45.392;10.918;2022-11-20T03:29:34;6.62;;;2.92;;
42338;SDS011;27993;45.392;10.918;2022-11-20T03:32:05;5.85;;;2.90;;
42338;SDS011;27993;45.392;10.918;2022-11-20T03:34:36;4.90;;;2.67;;
42338;SDS011;27993;45.392;10.918;2022-11-20T03:37:07;3.50;;;2.53;;
42338;SDS011;27993;45.392;10.918;2022-11-20T03:39:38;6.50;;;2.87;;
42338;SDS011;27993;45.392;10.918;2022-11-20T03:42:09;6.13;;;3.13;;
42338;SDS011;27993;45.392;10.918;2022-11-20T03:44:59;4.78;;;2.67;;
42338;SDS011;27993;45.392;10.918;2022-11-20T03:47:29;5.97;;;3.13;;
42338;SDS011;27993;45.392;10.918;2022-11-20T03:50:01;9.73;;;2.95;;
42338;SDS011;27993;45.392;10.918;2022-11-20T03:52:31;4.90;;;2.65;;
42338;SDS011;27993;45.392;10.918;2022-11-20T03:55:03;5.53;;;3.00;;
42338;SDS011;27993;45.392;10.918;2022-11-20T03:57:34;10.98;;;3.60;;
42338;SDS011;27993;45.392;10.918;2022-11-20T04:00:05;8.18;;;3.20;;
42338;SDS011;27993;45.392;10.918;2022-11-20T04:02:36;11.55;;;3.15;;
42338;SDS011;27993;45.392;10.918;2022-11-20T04:05:07;10.20;;;3.03;;
42338;SDS011;27993;45.392;10.918;2022-11-20T04:07:38;5.23;;;3.20;;
42338;SDS011;27993;45.392;10.918;2022-11-20T04:10:09;6.17;;;3.30;;
42338;SDS011;27993;45.392;10.918;2022-11-20T04:12:40;9.07;;;4.27;;
42338;SDS011;27993;45.392;10.918;2022-11-20T04:15:11;4.80;;;3.20;;
42338;SDS011;27993;45.392;10.918;2022-11-20T04:17:42;5.28;;;2.87;;
42338;SDS011;27993;45.392;10.918;2022-11-20T04:20:13;4.87;;;3.10;;
42338;SDS011;27993;45.392;10.918;2022-11-20T04:22:44;9.35;;;3.30;;
42338;SDS011;27993;45.392;10.918;2022-11-20T04:25:15;9.77;;;3.17;;
42338;SDS011;27993;45.392;10.918;2022-11-20T04:27:46;10.37;;;3.37;;
42338;SDS011;27993;45.392;10.918;2022-11-20T04:30:17;8.87;;;3.43;;
42338;SDS011;27993;45.392;10.918;2022-11-20T04:32:48;6.63;;;3.80;;
42338;SDS011;27993;45.392;10.918;2022-11-20T04:35:19;6.97;;;3.33;;
42338;SDS011;27993;45.392;10.918;2022-11-20T04:37:56;5.87;;;2.78;;
42338;SDS011;27993;45.392;10.918;2022-11-20T04:40:27;7.25;;;3.62;;
42338;SDS011;27993;45.392;10.918;2022-11-20T04:42:59;5.65;;;3.20;;
42338;SDS011;27993;45.392;10.918;2022-11-20T04:45:30;8.83;;;3.43;;
42338;SDS011;27993;45.392;10.918;2022-11-20T04:48:01;7.55;;;2.58;;
42338;SDS011;27993;45.392;10.918;2022-11-20T04:50:32;5.70;;;3.05;;
42338;SDS011;27993;45.392;10.918;2022-11-20T04:53:03;4.12;;;2.42;;
42338;SDS011;27993;45.392;10.918;2022-11-20T04:55:33;7.28;;;2.97;;
42338;SDS011;27993;45.392;10.918;2022-11-20T04:58:05;6.60;;;2.90;;
42338;SDS011;27993;45.392;10.918;2022-11-20T05:00:36;6.20;;;3.00;;
42338;SDS011;27993;45.392;10.918;2022-11-20T05:03:07;5.18;;;3.12;;
42338;SDS011;27993;45.392;10.918;2022-11-20T05:05:37;6.00;;;2.60;;
42338;SDS011;27993;45.392;10.918;2022-11-20T05:08:08;4.03;;;2.85;;
42338;SDS011;27993;45.392;10.918;2022-11-20T05:10:39;4.75;;;2.47;;
42338;SDS011;27993;45.392;10.918;2022-11-20T05:13:10;5.05;;;2.70;;
42338;SDS011;27993;45.392;10.918;2022-11-20T05:15:41;5.07;;;3.00;;
42338;SDS011;27993;45.392;10.918;2022-11-20T05:18:12;8.20;;;2.72;;
42338;SDS011;27993;45.392;10.918;2022-11-20T05:20:43;10.70;;;3.85;;
42338;SDS011;27993;45.392;10.918;2022-11-20T05:23:14;5.07;;;2.83;;
42338;SDS011;27993;45.392;10.918;2022-11-20T05:25:45;7.53;;;3.62;;
42338;SDS011;27993;45.392;10.918;2022-11-20T05:28:16;7.03;;;3.25;;
42338;SDS011;27993;45.392;10.918;2022-11-20T05:30:47;7.60;;;3.55;;
42338;SDS011;27993;45.392;10.918;2022-11-20T05:33:18;9.00;;;4.10;;
42338;SDS011;27993;45.392;10.918;2022-11-20T05:35:49;19.95;;;3.65;;
42338;SDS011;27993;45.392;10.918;2022-11-20T05:38:20;6.72;;;4.15;;
42338;SDS011;27993;45.392;10.918;2022-11-20T05:40:51;7.62;;;3.75;;
42338;SDS011;27993;45.392;10.918;2022-11-20T05:43:22;7.62;;;4.10;;
42338;SDS011;27993;45.392;10.918;2022-11-20T05:45:53;7.15;;;3.65;;
42338;SDS011;27993;45.392;10.918;2022-11-20T05:48:24;19.73;;;6.07;;
42338;SDS011;27993;45.392;10.918;2022-11-20T05:50:57;7.10;;;4.05;;
42338;SDS011;27993;45.392;10.918;2022-11-20T05:53:28;16.20;;;4.62;;
42338;SDS011;27993;45.392;10.918;2022-11-20T05:56:03;7.57;;;3.70;;
42338;SDS011;27993;45.392;10.918;2022-11-20T05:58:34;8.77;;;4.05;;
42338;SDS011;27993;45.392;10.918;2022-11-20T06:01:06;7.05;;;4.12;;
42338;SDS011;27993;45.392;10.918;2022-11-20T06:03:37;7.75;;;4.65;;
42338;SDS011;27993;45.392;10.918;2022-11-20T06:06:09;8.00;;;3.62;;
42338;SDS011;27993;45.392;10.918;2022-11-20T06:08:40;6.15;;;3.17;;
42338;SDS011;27993;45.392;10.918;2022-11-20T06:11:12;6.07;;;3.40;;
42338;SDS011;27993;45.392;10.918;2022-11-20T06:13:43;6.40;;;3.75;;
42338;SDS011;27993;45.392;10.918;2022-11-20T06:16:15;7.00;;;3.53;;
42338;SDS011;27993;45.392;10.918;2022-11-20T06:18:47;9.20;;;3.95;;
42338;SDS011;27993;45.392;10.918;2022-11-20T06:21:19;12.47;;;3.67;;
42338;SDS011;27993;45.392;10.918;2022-11-20T06:23:51;5.80;;;3.47;;
42338;SDS011;27993;45.392;10.918;2022-11-20T06:26:24;12.95;;;4.10;;
42338;SDS011;27993;45.392;10.918;2022-11-20T06:28:56;7.90;;;4.35;;
42338;SDS011;27993;45.392;10.918;2022-11-20T06:31:27;13.70;;;4.17;;
42338;SDS011;27993;45.392;10.918;2022-11-20T06:33:58;10.83;;;5.03;;
42338;SDS011;27993;45.392;10.918;2022-11-20T06:36:29;9.63;;;4.80;;
42338;SDS011;27993;45.392;10.918;2022-11-20T06:39:00;11.18;;;5.43;;
42338;SDS011;27993;45.392;10.918;2022-11-20T06:41:31;7.95;;;4.28;;
42338;SDS011;27993;45.392;10.918;2022-11-20T06:44:03;5.35;;;3.25;;
42338;SDS011;27993;45.392;10.918;2022-11-20T06:46:35;9.10;;;3.85;;
42338;SDS011;27993;45.392;10.918;2022-11-20T06:49:06;13.30;;;6.45;;
42338;SDS011;27993;45.392;10.918;2022-11-20T06:51:37;5.95;;;3.90;;
42338;SDS011;27993;45.392;10.918;2022-11-20T06:54:08;8.23;;;4.87;;
42338;SDS011;27993;45.392;10.918;2022-11-20T06:56:39;15.17;;;5.17;;
42338;SDS011;27993;45.392;10.918;2022-11-20T06:59:10;20.85;;;5.57;;
42338;SDS011;27993;45.392;10.918;2022-11-20T07:01:41;11.87;;;4.37;;
42338;SDS011;27993;45.392;10.918;2022-11-20T07:04:12;7.63;;;4.60;;
42338;SDS011;27993;45.392;10.918;2022-11-20T07:06:43;8.23;;;4.97;;
42338;SDS011;27993;45.392;10.918;2022-11-20T07:09:14;10.60;;;4.40;;
42338;SDS011;27993;45.392;10.918;2022-11-20T07:11:45;5.80;;;4.15;;
42338;SDS011;27993;45.392;10.918;2022-11-20T07:14:16;13.80;;;4.82;;
42338;SDS011;27993;45.392;10.918;2022-11-20T07:16:47;15.10;;;4.50;;
42338;SDS011;27993;45.392;10.918;2022-11-20T07:19:18;9.18;;;4.28;;
42338;SDS011;27993;45.392;10.918;2022-11-20T07:21:49;8.18;;;4.35;;
42338;SDS011;27993;45.392;10.918;2022-11-20T07:24:20;10.55;;;4.25;;
42338;SDS011;27993;45.392;10.918;2022-11-20T07:26:51;12.35;;;5.90;;
42338;SDS011;27993;45.392;10.918;2022-11-20T07:29:22;6.10;;;4.50;;
42338;SDS011;27993;45.392;10.918;2022-11-20T07:31:53;10.02;;;4.30;;
42338;SDS011;27993;45.392;10.918;2022-11-20T07:34:25;6.68;;;4.03;;
42338;SDS011;27993;45.392;10.918;2022-11-20T07:36:56;12.37;;;4.20;;
42338;SDS011;27993;45.392;10.918;2022-11-20T07:39:27;9.68;;;4.30;;
42338;SDS011;27993;45.392;10.918;2022-11-20T07:41:58;6.57;;;4.10;;
42338;SDS011;27993;45.392;10.918;2022-11-20T07:44:29;7.75;;;3.87;;
42338;SDS011;27993;45.392;10.918;2022-11-20T07:47:00;8.30;;;5.03;;
42338;SDS011;27993;45.392;10.918;2022-11-20T07:52:03;10.18;;;6.03;;
42338;SDS011;27993;45.392;10.918;2022-11-20T07:54:34;8.40;;;4.80;;
42338;SDS011;27993;45.392;10.918;2022-11-20T07:57:05;12.98;;;4.65;;
42338;SDS011;27993;45.392;10.918;2022-11-20T07:59:36;7.90;;;4.50;;
42338;SDS011;27993;45.392;10.918;2022-11-20T08:02:09;7.85;;;4.90;;
42338;SDS011;27993;45.392;10.918;2022-11-20T08:04:41;10.15;;;5.93;;
42338;SDS011;27993;45.392;10.918;2022-11-20T08:07:12;10.90;;;6.28;;
42338;SDS011;27993;45.392;10.918;2022-11-20T08:09:43;19.10;;;7.85;;
42338;SDS011;27993;45.392;10.918;2022-11-20T08:12:20;16.98;;;7.80;;
42338;SDS011;27993;45.392;10.918;2022-11-20T08:15:10;12.00;;;6.82;;
42338;SDS011;27993;45.392;10.918;2022-11-20T08:17:41;15.65;;;6.07;;
42338;SDS011;27993;45.392;10.918;2022-11-20T08:20:12;11.40;;;6.18;;
42338;SDS011;27993;45.392;10.918;2022-11-20T08:22:43;12.18;;;5.15;;
42338;SDS011;27993;45.392;10.918;2022-11-20T08:25:17;7.70;;;4.95;;
42338;SDS011;27993;45.392;10.918;2022-11-20T08:27:48;13.55;;;4.95;;
42338;SDS011;27993;45.392;10.918;2022-11-20T08:30:19;12.93;;;5.20;;
42338;SDS011;27993;45.392;10.918;2022-11-20T08:32:50;7.78;;;4.70;;
42338;SDS011;27993;45.392;10.918;2022-11-20T08:35:24;11.25;;;5.90;;
42338;SDS011;27993;45.392;10.918;2022-11-20T08:37:54;7.87;;;4.80;;
42338;SDS011;27993;45.392;10.918;2022-11-20T08:40:25;8.60;;;4.00;;
42338;SDS011;27993;45.392;10.918;2022-11-20T08:42:56;8.95;;;5.20;;
42338;SDS011;27993;45.392;10.918;2022-11-20T08:45:28;10.40;;;4.85;;
42338;SDS011;27993;45.392;10.918;2022-11-20T08:47:59;11.23;;;4.45;;
42338;SDS011;27993;45.392;10.918;2022-11-20T08:50:31;8.60;;;4.87;;
42338;SDS011;27993;45.392;10.918;2022-11-20T08:53:05;12.70;;;4.00;;
42338;SDS011;27993;45.392;10.918;2022-11-20T08:55:39;9.38;;;4.22;;
42338;SDS011;27993;45.392;10.918;2022-11-20T08:58:10;7.03;;;3.87;;
42338;SDS011;27993;45.392;10.918;2022-11-20T09:00:41;11.77;;;4.90;;
42338;SDS011;27993;45.392;10.918;2022-11-20T09:03:12;6.30;;;3.87;;
42338;SDS011;27993;45.392;10.918;2022-11-20T09:05:43;12.27;;;4.72;;
42338;SDS011;27993;45.392;10.918;2022-11-20T09:08:14;8.48;;;3.87;;
42338;SDS011;27993;45.392;10.918;2022-11-20T09:10:45;7.87;;;3.97;;
42338;SDS011;27993;45.392;10.918;2022-11-20T09:13:16;5.55;;;3.53;;
42338;SDS011;27993;45.392;10.918;2022-11-20T09:15:52;7.05;;;3.83;;
42338;SDS011;27993;45.392;10.918;2022-11-20T09:18:23;6.68;;;3.50;;
42338;SDS011;27993;45.392;10.918;2022-11-20T09:20:58;11.52;;;6.07;;
42338;SDS011;27993;45.392;10.918;2022-11-20T09:23:33;19.92;;;8.88;;
42338;SDS011;27993;45.392;10.918;2022-11-20T09:26:05;11.48;;;5.82;;
42338;SDS011;27993;45.392;10.918;2022-11-20T09:28:37;7.05;;;4.68;;
42338;SDS011;27993;45.392;10.918;2022-11-20T09:31:17;7.60;;;3.33;;
42338;SDS011;27993;45.392;10.918;2022-11-20T09:33:50;5.53;;;4.40;;
42338;SDS011;27993;45.392;10.918;2022-11-20T09:36:21;6.87;;;3.72;;
42338;SDS011;27993;45.392;10.918;2022-11-20T09:38:55;4.85;;;3.17;;
42338;SDS011;27993;45.392;10.918;2022-11-20T09:43:58;4.53;;;2.75;;
42338;SDS011;27993;45.392;10.918;2022-11-20T09:46:39;6.07;;;2.67;;
42338;SDS011;27993;45.392;10.918;2022-11-20T09:54:20;4.90;;;2.95;;
42338;SDS011;27993;45.392;10.918;2022-11-20T09:56:56;5.43;;;3.20;;
42338;SDS011;27993;45.392;10.918;2022-11-20T10:02:12;8.23;;;5.80;;
42338;SDS011;27993;45.392;10.918;2022-11-20T10:04:52;4.68;;;2.65;;
42338;SDS011;27993;45.392;10.918;2022-11-20T10:07:47;5.68;;;3.20;;
42338;SDS011;27993;45.392;10.918;2022-11-20T10:10:21;8.70;;;2.83;;
42338;SDS011;27993;45.392;10.918;2022-11-20T10:20:58;17.42;;;10.40;;
42338;SDS011;27993;45.392;10.918;2022-11-20T10:26:33;5.25;;;3.30;;
42338;SDS011;27993;45.392;10.918;2022-11-20T10:31:59;8.25;;;4.10;;
42338;SDS011;27993;45.392;10.918;2022-11-20T10:34:45;5.75;;;3.58;;
42338;SDS011;27993;45.392;10.918;2022-11-20T10:37:26;8.68;;;6.22;;
42338;SDS011;27993;45.392;10.918;2022-11-20T10:40:00;4.53;;;3.25;;
42338;SDS011;27993;45.392;10.918;2022-11-20T10:42:34;7.35;;;4.62;;
42338;SDS011;27993;45.392;10.918;2022-11-20T10:50:29;5.55;;;3.87;;
42338;SDS011;27993;45.392;10.918;2022-11-20T10:55:53;11.40;;;4.50;;
42338;SDS011;27993;45.392;10.918;2022-11-20T11:01:05;6.22;;;4.10;;
42338;SDS011;27993;45.392;10.918;2022-11-20T11:03:36;8.13;;;3.97;;
42338;SDS011;27993;45.392;10.918;2022-11-20T11:06:12;8.38;;;4.97;;
42338;SDS011;27993;45.392;10.918;2022-11-20T11:08:48;7.60;;;5.85;;
42338;SDS011;27993;45.392;10.918;2022-11-20T11:11:21;8.63;;;6.50;;
42338;SDS011;27993;45.392;10.918;2022-11-20T11:13:53;7.28;;;4.93;;
42338;SDS011;27993;45.392;10.918;2022-11-20T11:21:36;8.80;;;6.87;;
42338;SDS011;27993;45.392;10.918;2022-11-20T11:24:26;10.82;;;6.70;;
42338;SDS011;27993;45.392;10.918;2022-11-20T11:26:58;10.55;;;7.60;;
42338;SDS011;27993;45.392;10.918;2022-11-20T11:29:34;13.32;;;8.43;;
42338;SDS011;27993;45.392;10.918;2022-11-20T11:32:06;10.15;;;7.05;;
42338;SDS011;27993;45.392;10.918;2022-11-20T11:34:38;11.80;;;8.15;;
42338;SDS011;27993;45.392;10.918;2022-11-20T11:37:19;18.83;;;10.15;;
42338;SDS011;27993;45.392;10.918;2022-11-20T11:39:51;16.58;;;9.27;;
42338;SDS011;27993;45.392;10.918;2022-11-20T11:42:22;15.60;;;9.52;;
42338;SDS011;27993;45.392;10.918;2022-11-20T11:44:53;15.07;;;7.80;;
42338;SDS011;27993;45.392;10.918;2022-11-20T11:55:14;14.35;;;9.48;;
42338;SDS011;27993;45.392;10.918;2022-11-20T11:57:52;16.33;;;9.68;;
42338;SDS011;27993;45.392;10.918;2022-11-20T12:00:25;19.23;;;11.98;;
42338;SDS011;27993;45.392;10.918;2022-11-20T12:03:00;19.27;;;11.77;;
42338;SDS011;27993;45.392;10.918;2022-11-20T12:05:47;23.42;;;12.43;;
42338;SDS011;27993;45.392;10.918;2022-11-20T12:08:39;22.25;;;13.20;;
42338;SDS011;27993;45.392;10.918;2022-11-20T12:16:49;21.67;;;12.10;;
42338;SDS011;27993;45.392;10.918;2022-11-20T12:19:20;16.95;;;12.20;;
42338;SDS011;27993;45.392;10.918;2022-11-20T12:24:38;24.77;;;13.40;;
42338;SDS011;27993;45.392;10.918;2022-11-20T12:30:08;20.67;;;12.07;;
42338;SDS011;27993;45.392;10.918;2022-11-20T12:35:16;20.95;;;12.65;;
42338;SDS011;27993;45.392;10.918;2022-11-20T12:40:44;20.35;;;12.07;;
42338;SDS011;27993;45.392;10.918;2022-11-20T12:43:20;19.73;;;11.80;;
42338;SDS011;27993;45.392;10.918;2022-11-20T12:52:03;21.70;;;14.00;;
42338;SDS011;27993;45.392;10.918;2022-11-20T12:57:28;29.95;;;14.98;;
42338;SDS011;27993;45.392;10.918;2022-11-20T13:07:59;22.15;;;13.27;;
42338;SDS011;27993;45.392;10.918;2022-11-20T13:13:49;17.50;;;12.40;;
42338;SDS011;27993;45.392;10.918;2022-11-20T13:15:55;21.65;;;12.95;;
42338;SDS011;27993;45.392;10.918;2022-11-20T13:18:28;24.50;;;12.60;;
42338;SDS011;27993;45.392;10.918;2022-11-20T13:21:13;26.75;;;14.23;;
42338;SDS011;27993;45.392;10.918;2022-11-20T13:23:44;23.73;;;14.48;;
42338;SDS011;27993;45.392;10.918;2022-11-20T13:26:16;20.60;;;13.02;;
42338;SDS011;27993;45.392;10.918;2022-11-20T13:28:59;24.40;;;14.35;;
42338;SDS011;27993;45.392;10.918;2022-11-20T13:31:34;20.25;;;13.27;;
42338;SDS011;27993;45.392;10.918;2022-11-20T13:34:05;20.17;;;13.57;;
42338;SDS011;27993;45.392;10.918;2022-11-20T13:36:38;20.85;;;13.27;;
42338;SDS011;27993;45.392;10.918;2022-11-20T13:39:28;21.95;;;13.48;;
42338;SDS011;27993;45.392;10.918;2022-11-20T13:42:18;20.75;;;13.40;;
42338;SDS011;27993;45.392;10.918;2022-11-20T13:47:23;29.30;;;13.30;;
42338;SDS011;27993;45.392;10.918;2022-11-20T13:49:55;24.75;;;13.20;;
42338;SDS011;27993;45.392;10.918;2022-11-20T13:55:35;19.40;;;11.70;;
42338;SDS011;27993;45.392;10.918;2022-11-20T14:01:08;22.70;;;12.00;;
42338;SDS011;27993;45.392;10.918;2022-11-20T14:03:40;21.30;;;12.13;;
42338;SDS011;27993;45.392;10.918;2022-11-20T14:06:14;21.35;;;12.82;;
42338;SDS011;27993;45.392;10.918;2022-11-20T14:08:47;16.70;;;11.23;;
42338;SDS011;27993;45.392;10.918;2022-11-20T14:11:19;22.67;;;13.32;;
42338;SDS011;27993;45.392;10.918;2022-11-20T14:13:54;25.45;;;13.05;;
42338;SDS011;27993;45.392;10.918;2022-11-20T14:16:27;19.67;;;12.75;;
42338;SDS011;27993;45.392;10.918;2022-11-20T14:19:14;23.95;;;13.48;;
42338;SDS011;27993;45.392;10.918;2022-11-20T14:22:06;25.05;;;14.07;;
42338;SDS011;27993;45.392;10.918;2022-11-20T14:24:37;29.12;;;16.05;;
42338;SDS011;27993;45.392;10.918;2022-11-20T14:27:15;18.83;;;13.43;;
42338;SDS011;27993;45.392;10.918;2022-11-20T14:29:47;19.05;;;12.98;;
42338;SDS011;27993;45.392;10.918;2022-11-20T14:32:20;21.48;;;14.55;;
42338;SDS011;27993;45.392;10.918;2022-11-20T14:34:52;23.48;;;14.27;;
42338;SDS011;27993;45.392;10.918;2022-11-20T14:37:24;25.62;;;13.73;;
42338;SDS011;27993;45.392;10.918;2022-11-20T14:39:56;26.23;;;14.73;;
42338;SDS011;27993;45.392;10.918;2022-11-20T14:42:28;22.67;;;13.88;;
42338;SDS011;27993;45.392;10.918;2022-11-20T14:45:00;27.35;;;14.93;;
42338;SDS011;27993;45.392;10.918;2022-11-20T14:47:31;21.45;;;13.18;;
42338;SDS011;27993;45.392;10.918;2022-11-20T14:52:34;24.52;;;13.05;;
42338;SDS011;27993;45.392;10.918;2022-11-20T14:55:05;20.02;;;12.75;;
42338;SDS011;27993;45.392;10.918;2022-11-20T14:57:39;20.83;;;13.62;;
42338;SDS011;27993;45.392;10.918;2022-11-20T15:02:41;23.25;;;13.80;;
42338;SDS011;27993;45.392;10.918;2022-11-20T15:05:13;31.02;;;13.95;;
42338;SDS011;27993;45.392;10.918;2022-11-20T15:07:51;22.77;;;12.63;;
42338;SDS011;27993;45.392;10.918;2022-11-20T15:10:24;23.48;;;13.98;;
42338;SDS011;27993;45.392;10.918;2022-11-20T15:12:59;21.95;;;13.40;;
42338;SDS011;27993;45.392;10.918;2022-11-20T15:15:45;24.02;;;15.00;;
42338;SDS011;27993;45.392;10.918;2022-11-20T15:18:18;32.90;;;14.57;;
42338;SDS011;27993;45.392;10.918;2022-11-20T15:20:50;25.67;;;12.77;;
42338;SDS011;27993;45.392;10.918;2022-11-20T15:23:22;26.87;;;14.82;;
42338;SDS011;27993;45.392;10.918;2022-11-20T15:25:53;23.08;;;14.82;;
42338;SDS011;27993;45.392;10.918;2022-11-20T15:30:58;31.08;;;15.48;;
42338;SDS011;27993;45.392;10.918;2022-11-20T15:33:30;21.00;;;14.30;;
42338;SDS011;27993;45.392;10.918;2022-11-20T15:36:01;25.52;;;15.77;;
42338;SDS011;27993;45.392;10.918;2022-11-20T15:38:32;30.17;;;15.93;;
42338;SDS011;27993;45.392;10.918;2022-11-20T15:41:03;25.70;;;15.20;;
42338;SDS011;27993;45.392;10.918;2022-11-20T15:43:34;29.00;;;14.98;;
42338;SDS011;27993;45.392;10.918;2022-11-20T15:46:12;25.95;;;15.18;;
42338;SDS011;27993;45.392;10.918;2022-11-20T15:48:44;25.98;;;15.75;;
42338;SDS011;27993;45.392;10.918;2022-11-20T15:51:35;26.98;;;15.23;;
42338;SDS011;27993;45.392;10.918;2022-11-20T15:54:13;32.47;;;15.45;;
42338;SDS011;27993;45.392;10.918;2022-11-20T15:56:46;23.77;;;14.50;;
42338;SDS011;27993;45.392;10.918;2022-11-20T15:59:17;33.85;;;16.73;;
42338;SDS011;27993;45.392;10.918;2022-11-20T16:01:48;34.38;;;16.60;;
42338;SDS011;27993;45.392;10.918;2022-11-20T16:04:19;26.67;;;15.23;;
42338;SDS011;27993;45.392;10.918;2022-11-20T16:06:50;29.05;;;15.43;;
42338;SDS011;27993;45.392;10.918;2022-11-20T16:09:21;27.95;;;15.00;;
42338;SDS011;27993;45.392;10.918;2022-11-20T16:11:52;33.47;;;17.23;;
42338;SDS011;27993;45.392;10.918;2022-11-20T16:14:23;35.55;;;18.98;;
42338;SDS011;27993;45.392;10.918;2022-11-20T16:17:12;39.88;;;18.90;;
42338;SDS011;27993;45.392;10.918;2022-11-20T16:19:43;36.42;;;18.30;;
42338;SDS011;27993;45.392;10.918;2022-11-20T16:22:14;38.20;;;18.67;;
42338;SDS011;27993;45.392;10.918;2022-11-20T16:24:45;57.30;;;22.17;;
42338;SDS011;27993;45.392;10.918;2022-11-20T16:27:17;56.03;;;25.67;;
42338;SDS011;27993;45.392;10.918;2022-11-20T16:29:48;42.77;;;22.83;;
42338;SDS011;27993;45.392;10.918;2022-11-20T16:32:19;29.98;;;17.95;;
42338;SDS011;27993;45.392;10.918;2022-11-20T16:34:50;39.03;;;20.90;;
42338;SDS011;27993;45.392;10.918;2022-11-20T16:37:21;62.87;;;25.37;;
42338;SDS011;27993;45.392;10.918;2022-11-20T16:39:52;43.57;;;24.97;;
42338;SDS011;27993;45.392;10.918;2022-11-20T16:42:23;43.55;;;24.50;;